sensor_id;sensor_type;location;lat;lon;timestamp;P1;durP1;ratioP1;P2;durP2;ratioP2
34541;SDS011;20784;51.332;12.410;2023-04-25T00:00:21;11.18;;;4.90;;
34541;SDS011;20784;51.332;12.410;2023-04-25T00:02:50;8.80;;;4.55;;
34541;SDS011;20784;51.332;12.410;2023-04-25T00:05:15;11.25;;;4.55;;
34541;SDS011;20784;51.332;12.410;2023-04-25T00:07:41;7.57;;;4.43;;
34541;SDS011;20784;51.332;12.410;2023-04-25T00:10:11;10.75;;;4.38;;
34541;SDS011;20784;51.332;12.410;2023-04-25T00:12:36;5.53;;;4.00;;
34541;SDS011;20784;51.332;12.410;2023-04-25T00:15:02;9.80;;;4.78;;
34541;SDS011;20784;51.332;12.410;2023-04-25T00:17:28;9.70;;;4.25;;
34541;SDS011;20784;51.332;12.410;2023-04-25T00:19:54;9.45;;;4.63;;
34541;SDS011;20784;51.332;12.410;2023-04-25T00:22:21;10.65;;;4.97;;
34541;SDS011;20784;51.332;12.410;2023-04-25T00:24:49;6.22;;;4.13;;
34541;SDS011;20784;51.332;12.410;2023-04-25T00:27:15;8.38;;;4.15;;
34541;SDS011;20784;51.332;12.410;2023-04-25T00:29:41;7.53;;;4.43;;
34541;SDS011;20784;51.332;12.410;2023-04-25T00:32:07;10.40;;;4.70;;
34541;SDS011;20784;51.332;12.410;2023-04-25T00:34:44;8.80;;;4.75;;
34541;SDS011;20784;51.332;12.410;2023-04-25T00:37:15;11.23;;;4.82;;
34541;SDS011;20784;51.332;12.410;2023-04-25T00:39:47;8.05;;;4.88;;
34541;SDS011;20784;51.332;12.410;2023-04-25T00:42:26;8.45;;;5.47;;
34541;SDS011;20784;51.332;12.410;2023-04-25T00:44:55;7.15;;;4.50;;
34541;SDS011;20784;51.332;12.410;2023-04-25T00:47:22;8.10;;;4.97;;
34541;SDS011;20784;51.332;12.410;2023-04-25T00:49:51;9.20;;;5.07;;
34541;SDS011;20784;51.332;12.410;2023-04-25T00:52:21;9.30;;;5.45;;
34541;SDS011;20784;51.332;12.410;2023-04-25T00:54:47;8.43;;;4.78;;
34541;SDS011;20784;51.332;12.410;2023-04-25T00:57:12;10.77;;;5.15;;
34541;SDS011;20784;51.332;12.410;2023-04-25T00:59:38;12.52;;;5.65;;
34541;SDS011;20784;51.332;12.410;2023-04-25T01:04:48;9.25;;;5.30;;
34541;SDS011;20784;51.332;12.410;2023-04-25T01:07:14;8.68;;;5.35;;
34541;SDS011;20784;51.332;12.410;2023-04-25T01:09:40;13.98;;;5.80;;
34541;SDS011;20784;51.332;12.410;2023-04-25T01:12:08;8.35;;;5.38;;
34541;SDS011;20784;51.332;12.410;2023-04-25T01:14:34;7.82;;;5.63;;
34541;SDS011;20784;51.332;12.410;2023-04-25T01:17:00;12.13;;;6.35;;
34541;SDS011;20784;51.332;12.410;2023-04-25T01:19:26;9.57;;;5.22;;
34541;SDS011;20784;51.332;12.410;2023-04-25T01:21:56;9.35;;;5.35;;
34541;SDS011;20784;51.332;12.410;2023-04-25T01:24:22;11.55;;;5.80;;
34541;SDS011;20784;51.332;12.410;2023-04-25T01:26:54;11.77;;;5.78;;
34541;SDS011;20784;51.332;12.410;2023-04-25T01:29:21;12.27;;;5.20;;
34541;SDS011;20784;51.332;12.410;2023-04-25T01:31:52;12.05;;;5.38;;
34541;SDS011;20784;51.332;12.410;2023-04-25T01:34:25;8.88;;;4.78;;
34541;SDS011;20784;51.332;12.410;2023-04-25T01:36:53;9.32;;;5.40;;
34541;SDS011;20784;51.332;12.410;2023-04-25T01:39:22;12.68;;;5.65;;
34541;SDS011;20784;51.332;12.410;2023-04-25T01:41:59;9.40;;;5.13;;
34541;SDS011;20784;51.332;12.410;2023-04-25T01:44:33;9.98;;;5.30;;
34541;SDS011;20784;51.332;12.410;2023-04-25T01:47:07;11.20;;;5.65;;
34541;SDS011;20784;51.332;12.410;2023-04-25T01:49:41;15.13;;;5.43;;
34541;SDS011;20784;51.332;12.410;2023-04-25T01:52:07;9.32;;;5.20;;
34541;SDS011;20784;51.332;12.410;2023-04-25T01:54:35;8.85;;;5.63;;
34541;SDS011;20784;51.332;12.410;2023-04-25T01:57:08;11.52;;;5.20;;
34541;SDS011;20784;51.332;12.410;2023-04-25T01:59:37;8.63;;;5.32;;
34541;SDS011;20784;51.332;12.410;2023-04-25T02:02:02;9.95;;;4.85;;
34541;SDS011;20784;51.332;12.410;2023-04-25T02:04:31;8.35;;;5.03;;
34541;SDS011;20784;51.332;12.410;2023-04-25T02:06:57;8.35;;;4.97;;
34541;SDS011;20784;51.332;12.410;2023-04-25T02:09:24;14.52;;;5.82;;
34541;SDS011;20784;51.332;12.410;2023-04-25T02:11:49;9.20;;;5.75;;
34541;SDS011;20784;51.332;12.410;2023-04-25T02:14:20;7.55;;;4.93;;
34541;SDS011;20784;51.332;12.410;2023-04-25T02:16:46;8.60;;;4.95;;
34541;SDS011;20784;51.332;12.410;2023-04-25T02:19:12;8.85;;;5.60;;
34541;SDS011;20784;51.332;12.410;2023-04-25T02:21:38;10.80;;;5.20;;
34541;SDS011;20784;51.332;12.410;2023-04-25T02:24:06;12.27;;;4.97;;
34541;SDS011;20784;51.332;12.410;2023-04-25T02:26:32;12.07;;;5.35;;
34541;SDS011;20784;51.332;12.410;2023-04-25T02:29:01;12.07;;;5.47;;
34541;SDS011;20784;51.332;12.410;2023-04-25T02:31:27;10.30;;;5.60;;
34541;SDS011;20784;51.332;12.410;2023-04-25T02:33:52;9.25;;;5.25;;
34541;SDS011;20784;51.332;12.410;2023-04-25T02:36:18;10.57;;;5.10;;
34541;SDS011;20784;51.332;12.410;2023-04-25T02:38:46;8.55;;;5.95;;
34541;SDS011;20784;51.332;12.410;2023-04-25T02:41:18;9.40;;;6.13;;
34541;SDS011;20784;51.332;12.410;2023-04-25T02:43:47;8.60;;;5.70;;
34541;SDS011;20784;51.332;12.410;2023-04-25T02:46:13;7.60;;;4.70;;
34541;SDS011;20784;51.332;12.410;2023-04-25T02:48:39;8.75;;;5.05;;
34541;SDS011;20784;51.332;12.410;2023-04-25T02:51:05;13.02;;;5.78;;
34541;SDS011;20784;51.332;12.410;2023-04-25T02:53:30;9.65;;;5.85;;
34541;SDS011;20784;51.332;12.410;2023-04-25T02:55:56;9.75;;;5.57;;
34541;SDS011;20784;51.332;12.410;2023-04-25T02:58:24;9.88;;;5.47;;
34541;SDS011;20784;51.332;12.410;2023-04-25T03:00:56;12.20;;;5.90;;
34541;SDS011;20784;51.332;12.410;2023-04-25T03:03:27;11.30;;;6.10;;
34541;SDS011;20784;51.332;12.410;2023-04-25T03:05:55;12.63;;;6.60;;
34541;SDS011;20784;51.332;12.410;2023-04-25T03:08:20;11.05;;;6.50;;
34541;SDS011;20784;51.332;12.410;2023-04-25T03:10:46;13.55;;;6.43;;
34541;SDS011;20784;51.332;12.410;2023-04-25T03:13:22;11.40;;;6.40;;
34541;SDS011;20784;51.332;12.410;2023-04-25T03:15:50;14.40;;;6.95;;
34541;SDS011;20784;51.332;12.410;2023-04-25T03:18:16;9.60;;;6.85;;
34541;SDS011;20784;51.332;12.410;2023-04-25T03:20:45;11.07;;;6.32;;
34541;SDS011;20784;51.332;12.410;2023-04-25T03:23:11;15.93;;;6.70;;
34541;SDS011;20784;51.332;12.410;2023-04-25T03:25:40;10.15;;;6.05;;
34541;SDS011;20784;51.332;12.410;2023-04-25T03:28:06;13.00;;;6.47;;
34541;SDS011;20784;51.332;12.410;2023-04-25T03:30:39;11.75;;;5.95;;
34541;SDS011;20784;51.332;12.410;2023-04-25T03:33:07;7.43;;;5.50;;
34541;SDS011;20784;51.332;12.410;2023-04-25T03:35:33;10.68;;;6.20;;
34541;SDS011;20784;51.332;12.410;2023-04-25T03:38:07;12.02;;;6.35;;
34541;SDS011;20784;51.332;12.410;2023-04-25T03:40:35;11.05;;;5.90;;
34541;SDS011;20784;51.332;12.410;2023-04-25T03:43:03;9.00;;;6.03;;
34541;SDS011;20784;51.332;12.410;2023-04-25T03:45:36;10.57;;;6.07;;
34541;SDS011;20784;51.332;12.410;2023-04-25T03:48:18;13.68;;;5.93;;
34541;SDS011;20784;51.332;12.410;2023-04-25T03:50:49;13.45;;;6.65;;
34541;SDS011;20784;51.332;12.410;2023-04-25T03:53:18;10.93;;;6.13;;
34541;SDS011;20784;51.332;12.410;2023-04-25T03:55:51;15.02;;;5.97;;
34541;SDS011;20784;51.332;12.410;2023-04-25T03:58:17;15.73;;;5.80;;
34541;SDS011;20784;51.332;12.410;2023-04-25T04:00:53;13.18;;;5.68;;
34541;SDS011;20784;51.332;12.410;2023-04-25T04:03:21;12.25;;;5.65;;
34541;SDS011;20784;51.332;12.410;2023-04-25T04:05:47;12.50;;;6.05;;
34541;SDS011;20784;51.332;12.410;2023-04-25T04:15:09;12.63;;;5.80;;
34541;SDS011;20784;51.332;12.410;2023-04-25T04:17:58;14.07;;;6.57;;
34541;SDS011;20784;51.332;12.410;2023-04-25T04:20:30;14.50;;;6.22;;
34541;SDS011;20784;51.332;12.410;2023-04-25T04:22:59;12.48;;;7.38;;
34541;SDS011;20784;51.332;12.410;2023-04-25T04:25:27;38.03;;;8.00;;
34541;SDS011;20784;51.332;12.410;2023-04-25T04:27:56;13.30;;;7.05;;
34541;SDS011;20784;51.332;12.410;2023-04-25T04:30:22;15.13;;;7.45;;
34541;SDS011;20784;51.332;12.410;2023-04-25T04:32:50;11.93;;;6.82;;
34541;SDS011;20784;51.332;12.410;2023-04-25T04:35:18;17.33;;;7.43;;
34541;SDS011;20784;51.332;12.410;2023-04-25T04:37:47;11.15;;;7.38;;
34541;SDS011;20784;51.332;12.410;2023-04-25T04:40:13;15.75;;;7.60;;
34541;SDS011;20784;51.332;12.410;2023-04-25T04:42:42;13.02;;;7.18;;
34541;SDS011;20784;51.332;12.410;2023-04-25T04:45:10;17.10;;;7.32;;
34541;SDS011;20784;51.332;12.410;2023-04-25T04:47:37;13.52;;;7.10;;
34541;SDS011;20784;51.332;12.410;2023-04-25T04:50:06;16.75;;;7.28;;
34541;SDS011;20784;51.332;12.410;2023-04-25T04:52:36;12.45;;;7.35;;
34541;SDS011;20784;51.332;12.410;2023-04-25T04:55:03;17.95;;;7.53;;
34541;SDS011;20784;51.332;12.410;2023-04-25T04:57:30;13.82;;;7.18;;
34541;SDS011;20784;51.332;12.410;2023-04-25T04:59:57;14.63;;;6.85;;
34541;SDS011;20784;51.332;12.410;2023-04-25T05:02:24;16.23;;;7.10;;
34541;SDS011;20784;51.332;12.410;2023-04-25T05:04:49;14.48;;;7.28;;
34541;SDS011;20784;51.332;12.410;2023-04-25T05:07:18;13.80;;;7.38;;
34541;SDS011;20784;51.332;12.410;2023-04-25T05:09:47;17.85;;;7.40;;
34541;SDS011;20784;51.332;12.410;2023-04-25T05:12:19;13.25;;;7.80;;
34541;SDS011;20784;51.332;12.410;2023-04-25T05:17:10;13.27;;;7.82;;
34541;SDS011;20784;51.332;12.410;2023-04-25T05:19:36;16.45;;;7.70;;
34541;SDS011;20784;51.332;12.410;2023-04-25T05:22:04;17.58;;;7.20;;
34541;SDS011;20784;51.332;12.410;2023-04-25T05:24:30;14.07;;;7.90;;
34541;SDS011;20784;51.332;12.410;2023-04-25T05:26:56;16.45;;;7.55;;
34541;SDS011;20784;51.332;12.410;2023-04-25T05:29:22;30.20;;;12.43;;
34541;SDS011;20784;51.332;12.410;2023-04-25T05:31:53;15.82;;;8.32;;
34541;SDS011;20784;51.332;12.410;2023-04-25T05:36:45;18.75;;;9.00;;
34541;SDS011;20784;51.332;12.410;2023-04-25T05:39:14;16.88;;;8.70;;
34541;SDS011;20784;51.332;12.410;2023-04-25T05:41:43;17.17;;;7.85;;
34541;SDS011;20784;51.332;12.410;2023-04-25T05:44:09;11.52;;;7.13;;
34541;SDS011;20784;51.332;12.410;2023-04-25T05:46:34;18.52;;;8.32;;
34541;SDS011;20784;51.332;12.410;2023-04-25T05:49:03;15.38;;;8.82;;
34541;SDS011;20784;51.332;12.410;2023-04-25T05:51:29;14.88;;;7.65;;
34541;SDS011;20784;51.332;12.410;2023-04-25T05:53:54;12.52;;;7.57;;
34541;SDS011;20784;51.332;12.410;2023-04-25T05:56:20;15.25;;;7.63;;
34541;SDS011;20784;51.332;12.410;2023-04-25T05:58:45;16.95;;;7.68;;
34541;SDS011;20784;51.332;12.410;2023-04-25T06:01:11;15.80;;;7.10;;
34541;SDS011;20784;51.332;12.410;2023-04-25T06:03:37;14.32;;;7.35;;
34541;SDS011;20784;51.332;12.410;2023-04-25T06:06:03;25.92;;;7.43;;
34541;SDS011;20784;51.332;12.410;2023-04-25T06:08:29;19.48;;;7.80;;
34541;SDS011;20784;51.332;12.410;2023-04-25T06:10:54;18.75;;;7.45;;
34541;SDS011;20784;51.332;12.410;2023-04-25T06:13:20;17.92;;;7.75;;
34541;SDS011;20784;51.332;12.410;2023-04-25T06:15:46;15.60;;;7.38;;
34541;SDS011;20784;51.332;12.410;2023-04-25T06:18:11;16.95;;;7.07;;
34541;SDS011;20784;51.332;12.410;2023-04-25T06:20:37;17.55;;;6.57;;
34541;SDS011;20784;51.332;12.410;2023-04-25T06:23:03;16.67;;;7.03;;
34541;SDS011;20784;51.332;12.410;2023-04-25T06:25:28;19.05;;;7.70;;
34541;SDS011;20784;51.332;12.410;2023-04-25T06:27:54;10.77;;;6.53;;
34541;SDS011;20784;51.332;12.410;2023-04-25T06:30:23;14.38;;;6.65;;
34541;SDS011;20784;51.332;12.410;2023-04-25T06:32:50;11.63;;;6.22;;
34541;SDS011;20784;51.332;12.410;2023-04-25T06:35:19;22.77;;;7.82;;
34541;SDS011;20784;51.332;12.410;2023-04-25T06:37:45;18.92;;;6.63;;
34541;SDS011;20784;51.332;12.410;2023-04-25T06:40:14;14.85;;;5.93;;
34541;SDS011;20784;51.332;12.410;2023-04-25T06:42:42;11.65;;;6.30;;
34541;SDS011;20784;51.332;12.410;2023-04-25T06:45:08;14.15;;;7.05;;
34541;SDS011;20784;51.332;12.410;2023-04-25T06:47:34;10.13;;;5.25;;
34541;SDS011;20784;51.332;12.410;2023-04-25T06:49:59;11.35;;;5.93;;
34541;SDS011;20784;51.332;12.410;2023-04-25T06:52:25;10.80;;;5.43;;
34541;SDS011;20784;51.332;12.410;2023-04-25T06:54:50;10.98;;;6.00;;
34541;SDS011;20784;51.332;12.410;2023-04-25T06:57:16;11.60;;;6.07;;
34541;SDS011;20784;51.332;12.410;2023-04-25T06:59:41;13.10;;;5.63;;
34541;SDS011;20784;51.332;12.410;2023-04-25T07:02:07;11.70;;;5.72;;
34541;SDS011;20784;51.332;12.410;2023-04-25T07:04:40;10.88;;;5.75;;
34541;SDS011;20784;51.332;12.410;2023-04-25T07:07:11;12.23;;;6.10;;
34541;SDS011;20784;51.332;12.410;2023-04-25T07:09:36;12.18;;;5.72;;
34541;SDS011;20784;51.332;12.410;2023-04-25T07:12:02;13.30;;;6.18;;
34541;SDS011;20784;51.332;12.410;2023-04-25T07:14:28;14.20;;;5.68;;
34541;SDS011;20784;51.332;12.410;2023-04-25T07:16:54;15.50;;;5.78;;
34541;SDS011;20784;51.332;12.410;2023-04-25T07:19:21;10.65;;;6.32;;
34541;SDS011;20784;51.332;12.410;2023-04-25T07:21:53;19.20;;;6.85;;
34541;SDS011;20784;51.332;12.410;2023-04-25T07:24:24;16.13;;;6.83;;
34541;SDS011;20784;51.332;12.410;2023-04-25T07:26:50;15.27;;;6.32;;
34541;SDS011;20784;51.332;12.410;2023-04-25T07:29:18;16.02;;;6.70;;
34541;SDS011;20784;51.332;12.410;2023-04-25T07:31:44;18.45;;;7.40;;
34541;SDS011;20784;51.332;12.410;2023-04-25T07:34:09;16.17;;;7.65;;
34541;SDS011;20784;51.332;12.410;2023-04-25T07:36:38;14.38;;;6.25;;
34541;SDS011;20784;51.332;12.410;2023-04-25T07:39:03;14.35;;;6.60;;
34541;SDS011;20784;51.332;12.410;2023-04-25T07:41:29;14.40;;;6.45;;
34541;SDS011;20784;51.332;12.410;2023-04-25T07:43:55;14.13;;;7.10;;
34541;SDS011;20784;51.332;12.410;2023-04-25T07:46:20;14.15;;;5.90;;
34541;SDS011;20784;51.332;12.410;2023-04-25T07:48:46;16.42;;;6.05;;
34541;SDS011;20784;51.332;12.410;2023-04-25T07:51:11;10.77;;;6.10;;
34541;SDS011;20784;51.332;12.410;2023-04-25T07:53:37;18.33;;;7.00;;
34541;SDS011;20784;51.332;12.410;2023-04-25T07:56:05;11.40;;;6.55;;
34541;SDS011;20784;51.332;12.410;2023-04-25T07:58:31;15.60;;;6.82;;
34541;SDS011;20784;51.332;12.410;2023-04-25T08:00:57;13.90;;;6.47;;
34541;SDS011;20784;51.332;12.410;2023-04-25T08:03:32;19.73;;;7.00;;
34541;SDS011;20784;51.332;12.410;2023-04-25T08:06:04;13.77;;;6.72;;
34541;SDS011;20784;51.332;12.410;2023-04-25T08:08:30;13.82;;;7.07;;
34541;SDS011;20784;51.332;12.410;2023-04-25T08:10:55;11.55;;;5.95;;
34541;SDS011;20784;51.332;12.410;2023-04-25T08:13:21;15.90;;;5.30;;
34541;SDS011;20784;51.332;12.410;2023-04-25T08:15:46;14.10;;;4.88;;
34541;SDS011;20784;51.332;12.410;2023-04-25T08:18:12;11.98;;;4.03;;
34541;SDS011;20784;51.332;12.410;2023-04-25T08:20:37;8.18;;;3.40;;
34541;SDS011;20784;51.332;12.410;2023-04-25T08:23:03;9.73;;;3.40;;
34541;SDS011;20784;51.332;12.410;2023-04-25T08:25:28;13.00;;;3.22;;
34541;SDS011;20784;51.332;12.410;2023-04-25T08:27:54;16.13;;;3.50;;
34541;SDS011;20784;51.332;12.410;2023-04-25T08:30:21;8.77;;;2.58;;
34541;SDS011;20784;51.332;12.410;2023-04-25T08:32:46;12.75;;;3.00;;
34541;SDS011;20784;51.332;12.410;2023-04-25T08:35:12;11.10;;;2.92;;
34541;SDS011;20784;51.332;12.410;2023-04-25T08:37:37;16.20;;;3.40;;
34541;SDS011;20784;51.332;12.410;2023-04-25T08:40:03;8.13;;;2.42;;
34541;SDS011;20784;51.332;12.410;2023-04-25T08:42:32;14.75;;;2.95;;
34541;SDS011;20784;51.332;12.410;2023-04-25T08:44:59;9.57;;;2.58;;
34541;SDS011;20784;51.332;12.410;2023-04-25T08:47:26;10.75;;;2.63;;
34541;SDS011;20784;51.332;12.410;2023-04-25T08:49:54;12.05;;;2.83;;
34541;SDS011;20784;51.332;12.410;2023-04-25T08:52:24;20.60;;;3.00;;
34541;SDS011;20784;51.332;12.410;2023-04-25T08:54:55;13.20;;;3.55;;
34541;SDS011;20784;51.332;12.410;2023-04-25T08:57:22;19.05;;;3.10;;
34541;SDS011;20784;51.332;12.410;2023-04-25T08:59:49;18.48;;;2.78;;
34541;SDS011;20784;51.332;12.410;2023-04-25T09:02:14;11.23;;;2.83;;
34541;SDS011;20784;51.332;12.410;2023-04-25T09:04:43;12.65;;;2.67;;
34541;SDS011;20784;51.332;12.410;2023-04-25T09:07:09;11.05;;;2.85;;
34541;SDS011;20784;51.332;12.410;2023-04-25T09:09:35;9.27;;;2.38;;
34541;SDS011;20784;51.332;12.410;2023-04-25T09:12:01;13.80;;;2.92;;
34541;SDS011;20784;51.332;12.410;2023-04-25T09:14:26;15.13;;;2.75;;
34541;SDS011;20784;51.332;12.410;2023-04-25T09:17:03;11.50;;;2.80;;
34541;SDS011;20784;51.332;12.410;2023-04-25T09:19:31;8.98;;;2.80;;
34541;SDS011;20784;51.332;12.410;2023-04-25T09:21:59;13.48;;;3.30;;
34541;SDS011;20784;51.332;12.410;2023-04-25T09:24:44;13.73;;;3.03;;
34541;SDS011;20784;51.332;12.410;2023-04-25T09:27:18;12.77;;;3.20;;
34541;SDS011;20784;51.332;12.410;2023-04-25T09:29:47;8.57;;;2.85;;
34541;SDS011;20784;51.332;12.410;2023-04-25T09:32:21;12.00;;;3.05;;
34541;SDS011;20784;51.332;12.410;2023-04-25T09:34:49;20.48;;;3.47;;
34541;SDS011;20784;51.332;12.410;2023-04-25T09:37:23;9.32;;;2.78;;
34541;SDS011;20784;51.332;12.410;2023-04-25T09:39:49;14.98;;;3.72;;
34541;SDS011;20784;51.332;12.410;2023-04-25T09:42:21;18.50;;;3.65;;
34541;SDS011;20784;51.332;12.410;2023-04-25T09:44:49;16.70;;;4.18;;
34541;SDS011;20784;51.332;12.410;2023-04-25T09:47:17;18.35;;;3.72;;
34541;SDS011;20784;51.332;12.410;2023-04-25T09:49:43;19.55;;;3.47;;
34541;SDS011;20784;51.332;12.410;2023-04-25T09:52:13;11.63;;;3.20;;
34541;SDS011;20784;51.332;12.410;2023-04-25T09:54:40;18.43;;;3.57;;
34541;SDS011;20784;51.332;12.410;2023-04-25T09:57:15;18.67;;;4.25;;
34541;SDS011;20784;51.332;12.410;2023-04-25T09:59:46;21.65;;;4.18;;
34541;SDS011;20784;51.332;12.410;2023-04-25T10:02:17;15.32;;;3.65;;
34541;SDS011;20784;51.332;12.410;2023-04-25T10:04:47;14.18;;;3.25;;
34541;SDS011;20784;51.332;12.410;2023-04-25T10:07:13;16.13;;;3.80;;
34541;SDS011;20784;51.332;12.410;2023-04-25T10:09:40;17.67;;;4.43;;
34541;SDS011;20784;51.332;12.410;2023-04-25T10:12:07;21.40;;;4.60;;
34541;SDS011;20784;51.332;12.410;2023-04-25T10:14:33;21.80;;;4.25;;
34541;SDS011;20784;51.332;12.410;2023-04-25T10:16:59;17.45;;;4.45;;
34541;SDS011;20784;51.332;12.410;2023-04-25T10:19:26;16.05;;;4.05;;
34541;SDS011;20784;51.332;12.410;2023-04-25T10:24:21;21.83;;;4.35;;
34541;SDS011;20784;51.332;12.410;2023-04-25T10:26:47;14.07;;;4.68;;
34541;SDS011;20784;51.332;12.410;2023-04-25T10:29:18;16.70;;;4.30;;
34541;SDS011;20784;51.332;12.410;2023-04-25T10:31:49;19.13;;;4.47;;
34541;SDS011;20784;51.332;12.410;2023-04-25T10:34:15;22.35;;;4.53;;
34541;SDS011;20784;51.332;12.410;2023-04-25T10:36:42;17.90;;;4.78;;
34541;SDS011;20784;51.332;12.410;2023-04-25T10:39:13;17.48;;;5.20;;
34541;SDS011;20784;51.332;12.410;2023-04-25T10:42:09;16.30;;;5.65;;
34541;SDS011;20784;51.332;12.410;2023-04-25T10:44:36;16.85;;;4.70;;
34541;SDS011;20784;51.332;12.410;2023-04-25T10:47:05;15.00;;;5.15;;
34541;SDS011;20784;51.332;12.410;2023-04-25T10:52:11;20.95;;;6.15;;
34541;SDS011;20784;51.332;12.410;2023-04-25T10:54:42;17.35;;;4.72;;
34541;SDS011;20784;51.332;12.410;2023-04-25T10:57:29;19.42;;;4.95;;
34541;SDS011;20784;51.332;12.410;2023-04-25T11:00:05;16.35;;;4.25;;
34541;SDS011;20784;51.332;12.410;2023-04-25T11:02:45;19.70;;;4.57;;
34541;SDS011;20784;51.332;12.410;2023-04-25T11:05:23;16.73;;;5.10;;
34541;SDS011;20784;51.332;12.410;2023-04-25T11:07:54;17.95;;;5.32;;
34541;SDS011;20784;51.332;12.410;2023-04-25T11:10:28;21.45;;;5.88;;
34541;SDS011;20784;51.332;12.410;2023-04-25T11:12:55;18.95;;;5.70;;
34541;SDS011;20784;51.332;12.410;2023-04-25T11:15:22;12.40;;;4.60;;
34541;SDS011;20784;51.332;12.410;2023-04-25T11:17:50;22.05;;;5.72;;
34541;SDS011;20784;51.332;12.410;2023-04-25T11:20:17;20.73;;;5.07;;
34541;SDS011;20784;51.332;12.410;2023-04-25T11:22:44;20.27;;;6.28;;
34541;SDS011;20784;51.332;12.410;2023-04-25T11:25:11;20.33;;;5.28;;
34541;SDS011;20784;51.332;12.410;2023-04-25T11:27:38;24.50;;;5.53;;
34541;SDS011;20784;51.332;12.410;2023-04-25T11:30:26;19.25;;;4.82;;
34541;SDS011;20784;51.332;12.410;2023-04-25T11:32:52;15.18;;;4.70;;
34541;SDS011;20784;51.332;12.410;2023-04-25T11:35:18;16.15;;;4.93;;
34541;SDS011;20784;51.332;12.410;2023-04-25T11:37:45;13.35;;;4.93;;
34541;SDS011;20784;51.332;12.410;2023-04-25T11:40:11;18.42;;;4.25;;
34541;SDS011;20784;51.332;12.410;2023-04-25T11:42:43;18.67;;;4.40;;
34541;SDS011;20784;51.332;12.410;2023-04-25T11:45:11;18.52;;;4.82;;
34541;SDS011;20784;51.332;12.410;2023-04-25T11:47:37;16.02;;;4.28;;
34541;SDS011;20784;51.332;12.410;2023-04-25T11:50:04;18.92;;;3.88;;
34541;SDS011;20784;51.332;12.410;2023-04-25T11:52:45;11.00;;;3.60;;
34541;SDS011;20784;51.332;12.410;2023-04-25T11:55:18;12.68;;;3.55;;
34541;SDS011;20784;51.332;12.410;2023-04-25T11:57:46;14.35;;;3.10;;
34541;SDS011;20784;51.332;12.410;2023-04-25T12:00:18;14.27;;;3.40;;
34541;SDS011;20784;51.332;12.410;2023-04-25T12:02:47;19.70;;;4.70;;
34541;SDS011;20784;51.332;12.410;2023-04-25T12:05:17;19.23;;;3.63;;
34541;SDS011;20784;51.332;12.410;2023-04-25T12:07:42;12.98;;;2.92;;
34541;SDS011;20784;51.332;12.410;2023-04-25T12:10:10;12.00;;;2.90;;
34541;SDS011;20784;51.332;12.410;2023-04-25T12:12:38;19.83;;;4.28;;
34541;SDS011;20784;51.332;12.410;2023-04-25T12:15:13;8.52;;;3.42;;
34541;SDS011;20784;51.332;12.410;2023-04-25T12:17:44;14.57;;;3.00;;
34541;SDS011;20784;51.332;12.410;2023-04-25T12:20:17;17.30;;;3.15;;
34541;SDS011;20784;51.332;12.410;2023-04-25T12:22:51;12.05;;;2.60;;
34541;SDS011;20784;51.332;12.410;2023-04-25T12:30:53;20.38;;;3.05;;
34541;SDS011;20784;51.332;12.410;2023-04-25T12:33:27;10.25;;;2.55;;
34541;SDS011;20784;51.332;12.410;2023-04-25T12:36:00;13.73;;;2.50;;
34541;SDS011;20784;51.332;12.410;2023-04-25T12:38:37;15.57;;;2.90;;
34541;SDS011;20784;51.332;12.410;2023-04-25T12:41:03;10.90;;;2.83;;
34541;SDS011;20784;51.332;12.410;2023-04-25T12:43:29;13.70;;;3.17;;
34541;SDS011;20784;51.332;12.410;2023-04-25T12:45:57;9.00;;;2.67;;
34541;SDS011;20784;51.332;12.410;2023-04-25T12:48:23;12.50;;;2.50;;
34541;SDS011;20784;51.332;12.410;2023-04-25T12:50:49;13.60;;;3.15;;
34541;SDS011;20784;51.332;12.410;2023-04-25T12:53:19;17.02;;;3.20;;
34541;SDS011;20784;51.332;12.410;2023-04-25T12:55:48;15.30;;;2.70;;
34541;SDS011;20784;51.332;12.410;2023-04-25T12:58:17;10.57;;;2.53;;
34541;SDS011;20784;51.332;12.410;2023-04-25T13:00:43;14.18;;;2.70;;
34541;SDS011;20784;51.332;12.410;2023-04-25T13:03:12;21.30;;;2.80;;
34541;SDS011;20784;51.332;12.410;2023-04-25T13:05:38;14.30;;;2.67;;
34541;SDS011;20784;51.332;12.410;2023-04-25T13:08:04;8.20;;;2.20;;
34541;SDS011;20784;51.332;12.410;2023-04-25T13:10:30;11.30;;;2.45;;
34541;SDS011;20784;51.332;12.410;2023-04-25T13:12:58;15.35;;;2.38;;
34541;SDS011;20784;51.332;12.410;2023-04-25T13:15:24;13.27;;;2.20;;
34541;SDS011;20784;51.332;12.410;2023-04-25T13:17:49;11.95;;;2.90;;
34541;SDS011;20784;51.332;12.410;2023-04-25T13:20:15;11.55;;;2.40;;
34541;SDS011;20784;51.332;12.410;2023-04-25T13:22:41;13.40;;;2.03;;
34541;SDS011;20784;51.332;12.410;2023-04-25T13:25:07;6.85;;;2.00;;
34541;SDS011;20784;51.332;12.410;2023-04-25T13:27:34;5.00;;;1.60;;
34541;SDS011;20784;51.332;12.410;2023-04-25T13:30:00;10.43;;;2.20;;
34541;SDS011;20784;51.332;12.410;2023-04-25T13:32:29;10.13;;;2.22;;
34541;SDS011;20784;51.332;12.410;2023-04-25T13:34:55;7.45;;;1.48;;
34541;SDS011;20784;51.332;12.410;2023-04-25T13:37:21;6.50;;;2.00;;
34541;SDS011;20784;51.332;12.410;2023-04-25T13:39:49;10.57;;;2.08;;
34541;SDS011;20784;51.332;12.410;2023-04-25T13:42:14;4.60;;;1.60;;
34541;SDS011;20784;51.332;12.410;2023-04-25T13:44:40;6.35;;;1.90;;
34541;SDS011;20784;51.332;12.410;2023-04-25T13:47:06;10.27;;;2.03;;
34541;SDS011;20784;51.332;12.410;2023-04-25T13:49:32;8.65;;;2.33;;
34541;SDS011;20784;51.332;12.410;2023-04-25T13:51:57;10.18;;;1.90;;
34541;SDS011;20784;51.332;12.410;2023-04-25T13:54:22;5.63;;;2.20;;
34541;SDS011;20784;51.332;12.410;2023-04-25T13:56:48;7.45;;;2.00;;
34541;SDS011;20784;51.332;12.410;2023-04-25T13:59:15;8.40;;;2.05;;
34541;SDS011;20784;51.332;12.410;2023-04-25T14:01:41;9.30;;;2.00;;
34541;SDS011;20784;51.332;12.410;2023-04-25T14:04:06;12.43;;;2.95;;
34541;SDS011;20784;51.332;12.410;2023-04-25T14:06:33;6.78;;;2.22;;
34541;SDS011;20784;51.332;12.410;2023-04-25T14:09:00;9.18;;;2.10;;
34541;SDS011;20784;51.332;12.410;2023-04-25T14:11:26;10.52;;;2.00;;
34541;SDS011;20784;51.332;12.410;2023-04-25T14:13:51;9.13;;;2.25;;
34541;SDS011;20784;51.332;12.410;2023-04-25T14:16:17;8.32;;;2.13;;
34541;SDS011;20784;51.332;12.410;2023-04-25T14:18:42;7.72;;;1.80;;
34541;SDS011;20784;51.332;12.410;2023-04-25T14:21:08;8.77;;;2.25;;
34541;SDS011;20784;51.332;12.410;2023-04-25T14:23:34;8.65;;;2.10;;
34541;SDS011;20784;51.332;12.410;2023-04-25T14:26:00;6.68;;;2.17;;
34541;SDS011;20784;51.332;12.410;2023-04-25T14:28:25;8.60;;;2.03;;
34541;SDS011;20784;51.332;12.410;2023-04-25T14:30:51;4.20;;;1.55;;
34541;SDS011;20784;51.332;12.410;2023-04-25T14:33:16;8.50;;;1.65;;
34541;SDS011;20784;51.332;12.410;2023-04-25T14:35:42;6.55;;;1.70;;
34541;SDS011;20784;51.332;12.410;2023-04-25T14:38:07;9.10;;;1.98;;
34541;SDS011;20784;51.332;12.410;2023-04-25T14:40:33;9.68;;;1.92;;
34541;SDS011;20784;51.332;12.410;2023-04-25T14:42:58;5.60;;;1.50;;
34541;SDS011;20784;51.332;12.410;2023-04-25T14:45:24;6.45;;;1.65;;
34541;SDS011;20784;51.332;12.410;2023-04-25T14:47:50;8.10;;;2.00;;
34541;SDS011;20784;51.332;12.410;2023-04-25T14:50:15;7.13;;;2.22;;
34541;SDS011;20784;51.332;12.410;2023-04-25T14:52:41;7.43;;;2.53;;
34541;SDS011;20784;51.332;12.410;2023-04-25T14:55:08;7.53;;;2.20;;